Time;durP1;ratioP1;P1;durP2;ratioP2;P2;SDS_P1;SDS_P2;PMS_P1;PMS_P2;Temp;Humidity;BMP_temperature;BMP_pressure;BME280_temperature;BME280_humidity;BME280_pressure;Samples;Min_cycle;Max_cycle;Signal;HPM_P1;HPM_P2
2021/09/25 00:00:34;;;;;;;5.53;3.70;;;17.00;99.90;;;;;;4100032;29;20217;-78
2021/09/25 00:02:36;;;;;;;6.53;3.80;;;16.90;99.90;;;;;;4100303;29;20225;-78
2021/09/25 00:04:38;;;;;;;6.17;4.10;;;16.90;99.90;;;;;;4100173;29;20240;-79
2021/09/25 00:06:39;;;;;;;6.17;3.77;;;16.90;99.90;;;;;;4103998;28;20233;-79
2021/09/25 00:08:41;;;;;;;8.57;4.10;;;16.90;99.90;;;;;;4116322;28;20635;-81
2021/09/25 00:10:45;;;;;;;5.10;3.73;;;16.90;99.90;;;;;;4115988;28;20217;-79
2021/09/25 00:12:47;;;;;;;7.30;3.60;;;16.90;99.90;;;;;;4116122;28;20216;-78
2021/09/25 00:14:49;;;;;;;5.33;3.77;;;16.80;99.90;;;;;;4102712;28;20230;-78
2021/09/25 00:16:51;;;;;;;5.63;3.93;;;16.90;99.90;;;;;;4100153;28;20265;-78
2021/09/25 00:18:53;;;;;;;5.30;3.53;;;16.80;99.90;;;;;;4100170;28;20229;-77
2021/09/25 00:20:54;;;;;;;5.63;3.70;;;16.90;99.90;;;;;;4099723;28;20209;-79
2021/09/25 00:22:56;;;;;;;4.80;3.20;;;16.90;99.90;;;;;;4100234;28;20214;-79
2021/09/25 00:24:58;;;;;;;6.03;3.50;;;16.90;99.90;;;;;;4100117;29;20747;-79
2021/09/25 00:27:01;;;;;;;7.00;3.90;;;16.90;99.90;;;;;;4100242;28;20225;-77
2021/09/25 00:29:03;;;;;;;4.53;3.00;;;16.90;99.90;;;;;;4102974;28;20260;-79
2021/09/25 00:31:04;;;;;;;4.67;3.47;;;16.90;99.90;;;;;;4115812;28;20220;-78
2021/09/25 00:33:06;;;;;;;4.57;3.17;;;16.90;99.90;;;;;;4107425;28;20217;-78
2021/09/25 00:35:10;;;;;;;4.23;3.20;;;16.90;99.90;;;;;;4100051;29;20323;-77
2021/09/25 00:37:12;;;;;;;3.57;2.77;;;16.90;99.90;;;;;;4100089;28;20210;-78
2021/09/25 00:39:13;;;;;;;5.23;3.23;;;16.90;99.90;;;;;;4099847;29;20230;-78
2021/09/25 00:41:15;;;;;;;4.17;2.77;;;16.90;99.90;;;;;;4099444;29;20272;-77
2021/09/25 00:43:18;;;;;;;5.67;2.83;;;16.90;99.90;;;;;;4099517;29;20296;-78
2021/09/25 00:45:22;;;;;;;5.70;3.17;;;16.90;99.90;;;;;;4100086;29;20585;-77
2021/09/25 00:47:24;;;;;;;3.77;3.00;;;16.90;99.90;;;;;;4107316;28;20209;-79
2021/09/25 00:49:26;;;;;;;4.17;3.00;;;16.90;99.90;;;;;;4115499;28;20377;-78
2021/09/25 00:51:28;;;;;;;6.30;3.30;;;16.90;99.90;;;;;;4115461;28;20213;-77
2021/09/25 00:53:29;;;;;;;3.10;2.50;;;16.80;99.90;;;;;;4115423;28;20712;-78
2021/09/25 00:55:31;;;;;;;4.17;2.67;;;16.90;99.90;;;;;;4105190;28;20588;-79
2021/09/25 00:57:33;;;;;;;3.33;3.00;;;16.90;99.90;;;;;;4099588;29;20276;-78
2021/09/25 00:59:37;;;;;;;4.80;3.00;;;16.80;99.90;;;;;;4099194;29;20226;-79
2021/09/25 01:01:40;;;;;;;4.70;3.30;;;16.80;99.90;;;;;;4099369;29;20644;-80
2021/09/25 01:03:42;;;;;;;4.87;3.13;;;16.80;99.90;;;;;;4099294;29;20240;-79
2021/09/25 01:05:45;;;;;;;4.27;2.90;;;16.80;99.90;;;;;;4102258;28;20241;-79
2021/09/25 01:07:47;;;;;;;4.63;3.10;;;16.80;99.90;;;;;;4099436;29;20681;-79
2021/09/25 01:09:48;;;;;;;3.23;2.63;;;16.80;99.90;;;;;;4099140;28;20234;-79
2021/09/25 01:11:50;;;;;;;5.63;3.20;;;16.80;99.90;;;;;;4099263;29;20214;-78
2021/09/25 01:13:53;;;;;;;3.80;2.70;;;16.80;99.90;;;;;;4099215;28;20225;-78
2021/09/25 01:15:56;;;;;;;4.47;2.73;;;16.80;99.90;;;;;;4099358;29;20483;-79
2021/09/25 01:17:58;;;;;;;4.57;2.70;;;16.70;99.90;;;;;;4099304;29;20214;-79
2021/09/25 01:20:00;;;;;;;4.73;2.73;;;16.70;99.90;;;;;;4105097;28;20692;-79
2021/09/25 01:22:04;;;;;;;4.43;2.80;;;16.70;99.90;;;;;;4115253;28;20209;-78
2021/09/25 01:24:05;;;;;;;2.60;2.30;;;16.70;99.90;;;;;;4113744;28;20687;-78
2021/09/25 01:26:08;;;;;;;3.23;2.47;;;16.70;99.90;;;;;;4115200;28;20213;-80
2021/09/25 01:28:10;;;;;;;2.73;2.40;;;16.70;99.90;;;;;;4115206;28;20630;-79
2021/09/25 01:30:14;;;;;;;2.83;2.23;;;16.70;99.90;;;;;;4098536;28;20214;-80
2021/09/25 01:32:17;;;;;;;2.87;2.47;;;16.70;99.90;;;;;;4098986;29;20265;-79
2021/09/25 01:34:19;;;;;;;3.50;2.30;;;16.70;99.90;;;;;;4099086;28;20289;-78
2021/09/25 01:36:21;;;;;;;3.57;2.30;;;16.70;99.90;;;;;;4099117;28;20273;-78
2021/09/25 01:38:24;;;;;;;4.50;2.60;;;16.70;99.90;;;;;;4099292;28;20213;-79
2021/09/25 01:40:26;;;;;;;2.73;2.27;;;16.70;99.90;;;;;;4098742;29;20245;-80
2021/09/25 01:42:28;;;;;;;3.97;2.60;;;16.60;99.90;;;;;;4099123;29;20213;-80
2021/09/25 01:44:29;;;;;;;2.97;2.30;;;16.60;99.90;;;;;;4099050;29;20721;-78
2021/09/25 01:46:31;;;;;;;4.07;2.43;;;16.60;99.90;;;;;;4098794;28;20265;-78
2021/09/25 01:48:33;;;;;;;3.00;2.00;;;16.60;99.90;;;;;;4114983;28;20217;-78
2021/09/25 01:50:35;;;;;;;2.97;2.30;;;16.60;99.90;;;;;;4114777;28;20260;-78
2021/09/25 01:52:37;;;;;;;3.20;2.17;;;16.60;99.90;;;;;;4114832;28;20212;-79
2021/09/25 01:54:40;;;;;;;5.60;2.50;;;16.50;99.90;;;;;;4114915;28;20276;-78
2021/09/25 01:56:41;;;;;;;2.57;2.00;;;16.50;99.90;;;;;;4103195;28;20214;-77
2021/09/25 01:58:44;;;;;;;4.50;2.30;;;16.50;99.90;;;;;;4099090;29;20213;-78
2021/09/25 02:00:46;;;;;;;6.37;2.90;;;16.50;99.90;;;;;;4098674;29;20650;-79
2021/09/25 02:02:48;;;;;;;3.40;2.37;;;16.30;99.90;;;;;;4098972;29;20221;-78
2021/09/25 02:04:49;;;;;;;5.00;2.80;;;16.40;99.90;;;;;;4098974;28;20822;-79
2021/09/25 02:06:51;;;;;;;3.13;2.57;;;16.30;99.90;;;;;;4098955;29;20217;-78
2021/09/25 02:08:53;;;;;;;5.37;2.50;;;16.30;99.90;;;;;;4099037;28;20664;-79
2021/09/25 02:10:56;;;;;;;4.00;2.70;;;16.20;99.90;;;;;;4098592;29;20214;-80
2021/09/25 02:12:58;;;;;;;3.10;2.23;;;16.20;99.90;;;;;;4098666;28;20219;-78
2021/09/25 02:15:00;;;;;;;2.87;2.27;;;16.10;99.90;;;;;;4098942;28;20268;-77
2021/09/25 02:17:01;;;;;;;4.50;2.50;;;16.10;99.90;;;;;;4099059;28;20225;-79
2021/09/25 02:19:03;;;;;;;3.00;2.00;;;16.10;99.90;;;;;;4101049;28;20209;-79
2021/09/25 02:21:05;;;;;;;4.50;2.77;;;16.10;99.90;;;;;;4110483;28;20243;-79
2021/09/25 02:23:07;;;;;;;2.83;2.20;;;16.00;99.90;;;;;;4116647;28;20661;-80
2021/09/25 02:25:11;;;;;;;2.67;2.03;;;16.00;99.90;;;;;;4116790;28;20239;-80
2021/09/25 02:27:14;;;;;;;3.50;2.17;;;16.00;99.90;;;;;;4109436;28;20213;-78
2021/09/25 02:29:15;;;;;;;2.93;2.13;;;16.00;99.90;;;;;;4114798;28;20204;-79
2021/09/25 02:31:19;;;;;;;2.87;2.30;;;16.00;99.90;;;;;;4111145;28;20228;-78
2021/09/25 02:33:21;;;;;;;3.53;2.13;;;15.90;99.90;;;;;;4114427;28;20288;-79
2021/09/25 02:35:23;;;;;;;3.17;2.10;;;15.90;99.90;;;;;;4116774;28;20651;-79
2021/09/25 02:37:25;;;;;;;3.90;2.10;;;15.90;99.90;;;;;;4112933;28;20215;-80
2021/09/25 02:39:27;;;;;;;3.23;2.23;;;15.90;99.90;;;;;;4118639;28;20213;-81
2021/09/25 02:41:29;;;;;;;5.70;2.67;;;15.80;99.90;;;;;;4114260;28;20227;-80
2021/09/25 02:43:32;;;;;;;2.93;2.33;;;15.80;99.90;;;;;;4119940;28;20248;-78
2021/09/25 02:45:35;;;;;;;3.43;2.10;;;15.80;99.90;;;;;;4111631;28;20234;-78
2021/09/25 02:47:36;;;;;;;3.03;2.07;;;15.70;99.90;;;;;;4115873;28;20663;-78
2021/09/25 02:49:38;;;;;;;3.53;2.40;;;15.70;99.90;;;;;;4116912;28;20207;-78
2021/09/25 02:51:40;;;;;;;2.77;2.20;;;15.70;99.90;;;;;;4115457;28;20212;-79
2021/09/25 02:53:43;;;;;;;2.70;2.20;;;15.70;99.90;;;;;;4117970;28;20823;-79
2021/09/25 02:55:44;;;;;;;2.50;2.20;;;15.60;99.90;;;;;;4112719;28;20222;-78
2021/09/25 02:57:47;;;;;;;6.03;3.00;;;15.60;99.90;;;;;;4118736;28;20214;-79
2021/09/25 02:59:50;;;;;;;3.40;2.17;;;15.60;99.90;;;;;;4113884;28;20857;-79
2021/09/25 03:01:51;;;;;;;3.07;2.50;;;15.50;99.90;;;;;;4115857;28;20223;-78
2021/09/25 03:03:54;;;;;;;3.47;2.63;;;15.50;99.90;;;;;;4113575;28;20799;-78
2021/09/25 03:05:56;;;;;;;3.23;2.47;;;15.50;99.90;;;;;;4110544;28;20299;-79
2021/09/25 03:07:58;;;;;;;3.63;2.50;;;15.40;99.90;;;;;;4116111;28;20217;-80
2021/09/25 03:10:00;;;;;;;4.53;2.30;;;15.40;99.90;;;;;;4115452;28;20234;-78
2021/09/25 03:12:01;;;;;;;3.53;2.27;;;15.40;99.90;;;;;;4116510;28;20296;-77
2021/09/25 03:14:03;;;;;;;4.60;2.50;;;15.40;99.90;;;;;;4107651;28;20703;-78
2021/09/25 03:16:06;;;;;;;3.67;2.40;;;15.30;99.90;;;;;;4107500;28;20275;-80
2021/09/25 03:18:08;;;;;;;4.23;2.50;;;15.20;99.90;;;;;;4101118;29;20671;-77
2021/09/25 03:20:11;;;;;;;5.17;2.70;;;15.20;99.90;;;;;;4101311;29;20239;-77
2021/09/25 03:22:13;;;;;;;3.50;2.40;;;15.20;99.90;;;;;;4101527;28;20684;-77
2021/09/25 03:24:15;;;;;;;4.47;2.80;;;15.10;99.90;;;;;;4101010;28;20231;-77
2021/09/25 03:26:17;;;;;;;3.97;2.57;;;15.10;99.90;;;;;;4105572;28;20281;-78
2021/09/25 03:28:18;;;;;;;3.40;2.60;;;15.10;99.90;;;;;;4117537;28;20255;-83
2021/09/25 03:30:21;;;;;;;4.77;2.43;;;15.10;99.90;;;;;;4100262;29;20222;-78
2021/09/25 03:32:24;;;;;;;3.47;2.27;;;15.00;99.90;;;;;;4100832;29;20597;-79
2021/09/25 03:34:26;;;;;;;4.47;2.60;;;15.00;99.90;;;;;;4100852;29;20246;-78
2021/09/25 03:36:28;;;;;;;4.53;2.73;;;14.90;99.90;;;;;;4100802;29;20226;-79
2021/09/25 03:38:29;;;;;;;3.90;2.20;;;14.90;99.90;;;;;;4104325;28;20211;-77
2021/09/25 03:40:32;;;;;;;4.63;2.57;;;14.90;99.90;;;;;;4116329;28;20644;-79
2021/09/25 03:42:34;;;;;;;3.47;2.50;;;14.80;99.90;;;;;;4116777;28;20218;-78
2021/09/25 03:44:36;;;;;;;4.27;3.00;;;14.80;99.90;;;;;;4116407;28;20289;-79
2021/09/25 03:46:38;;;;;;;3.27;2.53;;;14.80;99.90;;;;;;4109765;28;20615;-77
2021/09/25 03:48:41;;;;;;;3.90;2.47;;;14.80;99.90;;;;;;4100782;29;20261;-83
2021/09/25 03:50:43;;;;;;;5.00;2.80;;;14.70;99.90;;;;;;4110524;28;20206;-79
2021/09/25 03:52:45;;;;;;;4.03;3.07;;;14.70;99.90;;;;;;4116595;28;20220;-77
2021/09/25 03:54:46;;;;;;;5.63;2.80;;;14.70;99.90;;;;;;4115681;28;20264;-79
2021/09/25 03:56:48;;;;;;;4.13;2.80;;;14.70;99.90;;;;;;4116414;28;20213;-79
2021/09/25 03:58:50;;;;;;;3.90;2.67;;;14.60;99.90;;;;;;4116385;28;20214;-77
2021/09/25 04:00:52;;;;;;;4.10;2.80;;;14.60;99.90;;;;;;4103916;28;20242;-78
2021/09/25 04:02:54;;;;;;;4.17;2.67;;;14.50;99.90;;;;;;4100335;29;20242;-79
2021/09/25 04:04:57;;;;;;;3.73;2.87;;;14.60;99.90;;;;;;4109127;28;20212;-79
2021/09/25 04:06:59;;;;;;;3.10;2.33;;;14.50;99.90;;;;;;4116464;28;20743;-77
2021/09/25 04:09:01;;;;;;;4.03;2.50;;;14.50;99.90;;;;;;4116102;28;20675;-78
2021/09/25 04:11:03;;;;;;;5.30;3.00;;;14.50;99.90;;;;;;4115934;28;20283;-78
2021/09/25 04:13:05;;;;;;;5.63;3.10;;;14.40;99.90;;;;;;4109889;28;20242;-77
2021/09/25 04:15:08;;;;;;;3.90;2.90;;;14.40;99.90;;;;;;4100215;29;20748;-78
2021/09/25 04:17:10;;;;;;;4.93;2.50;;;14.40;99.90;;;;;;4100119;29;20214;-79
2021/09/25 04:19:12;;;;;;;4.70;3.10;;;14.40;99.90;;;;;;4100058;29;20244;-77
2021/09/25 04:21:16;;;;;;;3.67;2.60;;;14.40;99.90;;;;;;4099770;29;20728;-77
2021/09/25 04:23:17;;;;;;;5.40;2.47;;;14.50;99.90;;;;;;4112227;28;20328;-77
2021/09/25 04:25:19;;;;;;;3.73;2.80;;;14.40;99.90;;;;;;4115611;28;20240;-78
2021/09/25 04:27:21;;;;;;;3.50;2.63;;;14.40;99.90;;;;;;4115994;28;20217;-78
2021/09/25 04:29:23;;;;;;;4.43;2.50;;;14.40;99.90;;;;;;4106465;28;20238;-79
2021/09/25 04:31:24;;;;;;;3.77;2.60;;;14.40;99.90;;;;;;4099854;28;20229;-79
2021/09/25 04:33:26;;;;;;;5.17;3.30;;;14.40;99.90;;;;;;4111178;28;20233;-80
2021/09/25 04:35:28;;;;;;;4.57;2.73;;;14.40;99.90;;;;;;4115771;28;20229;-78
2021/09/25 04:37:31;;;;;;;4.23;2.80;;;14.40;99.90;;;;;;4115907;28;20217;-77
2021/09/25 04:39:33;;;;;;;4.37;2.70;;;14.40;99.90;;;;;;4103741;28;20276;-78
2021/09/25 04:41:35;;;;;;;3.70;2.80;;;14.40;99.90;;;;;;4099851;28;20237;-78
2021/09/25 04:43:36;;;;;;;4.17;3.03;;;14.40;99.90;;;;;;4099688;28;20256;-77
2021/09/25 04:45:38;;;;;;;4.03;2.90;;;14.40;99.90;;;;;;4100013;28;20273;-77
2021/09/25 04:47:40;;;;;;;6.27;2.90;;;14.40;99.90;;;;;;4110071;28;20221;-78
2021/09/25 04:49:42;;;;;;;5.07;3.17;;;14.40;99.90;;;;;;4115391;28;20221;-77
2021/09/25 04:51:44;;;;;;;5.87;3.07;;;14.40;99.90;;;;;;4115768;28;20213;-78
2021/09/25 04:53:47;;;;;;;3.77;2.70;;;14.40;99.90;;;;;;4115466;28;20377;-77
2021/09/25 04:55:49;;;;;;;3.90;2.70;;;14.40;99.90;;;;;;4115499;28;20214;-77
2021/09/25 04:57:50;;;;;;;4.47;2.80;;;14.30;99.90;;;;;;4114227;28;20276;-77
2021/09/25 04:59:52;;;;;;;3.30;2.80;;;14.30;99.90;;;;;;4116845;28;20213;-80
2021/09/25 05:01:54;;;;;;;4.03;3.10;;;14.30;99.90;;;;;;4119312;28;20726;-80
2021/09/25 05:03:55;;;;;;;4.67;3.10;;;14.30;99.90;;;;;;4119475;28;20225;-80
2021/09/25 05:05:58;;;;;;;3.93;3.00;;;14.30;99.90;;;;;;4104677;28;20221;-80
2021/09/25 05:08:00;;;;;;;5.27;2.90;;;14.30;99.90;;;;;;4103205;29;20284;-80
2021/09/25 05:10:03;;;;;;;3.50;3.03;;;14.30;99.90;;;;;;4103647;29;20213;-80
2021/09/25 05:12:05;;;;;;;5.00;2.87;;;14.20;99.90;;;;;;4104205;28;20669;-79
2021/09/25 05:14:07;;;;;;;3.87;3.07;;;14.20;99.90;;;;;;4115694;28;20236;-79
2021/09/25 05:16:08;;;;;;;5.10;3.30;;;14.30;99.90;;;;;;4121287;28;20209;-79
2021/09/25 05:18:10;;;;;;;3.97;3.00;;;14.30;99.90;;;;;;4108339;28;20214;-79
2021/09/25 05:20:12;;;;;;;4.97;3.20;;;14.30;99.90;;;;;;4112458;29;20241;-79
2021/09/25 05:22:14;;;;;;;4.93;3.53;;;14.30;99.90;;;;;;4114493;28;20239;-79
2021/09/25 05:24:16;;;;;;;4.27;2.90;;;14.30;99.90;;;;;;4114466;29;20655;-79
2021/09/25 05:26:19;;;;;;;7.00;3.30;;;14.30;99.90;;;;;;4122660;28;20240;-80
2021/09/25 05:28:21;;;;;;;5.93;3.17;;;14.40;99.90;;;;;;4128599;28;20213;-80
2021/09/25 05:30:22;;;;;;;5.73;3.20;;;14.40;99.90;;;;;;4106189;29;20746;-79
2021/09/25 05:32:24;;;;;;;7.60;3.70;;;14.40;99.90;;;;;;4107645;28;20213;-79
2021/09/25 05:34:26;;;;;;;5.83;3.87;;;14.40;99.90;;;;;;4122267;28;20241;-80
2021/09/25 05:36:28;;;;;;;7.50;3.80;;;14.40;99.90;;;;;;4124190;28;20213;-79
2021/09/25 05:38:29;;;;;;;6.57;3.40;;;14.50;99.90;;;;;;4110453;28;20286;-80
2021/09/25 05:40:31;;;;;;;6.23;3.10;;;14.50;99.90;;;;;;4123189;28;20246;-80
2021/09/25 05:42:34;;;;;;;4.90;3.63;;;14.50;99.90;;;;;;4124902;28;20244;-80
2021/09/25 05:44:36;;;;;;;7.37;3.70;;;14.50;99.90;;;;;;4143983;23;20233;-78
2021/09/25 05:46:38;;;;;;;5.07;3.43;;;14.60;99.90;;;;;;4131110;28;20598;-76
2021/09/25 05:48:39;;;;;;;6.87;3.37;;;14.60;99.90;;;;;;4131626;28;20237;-79
2021/09/25 05:50:41;;;;;;;5.47;3.07;;;14.60;99.90;;;;;;4124545;28;20240;-78
2021/09/25 05:52:43;;;;;;;5.17;3.30;;;14.60;99.90;;;;;;4117712;28;20618;-78
2021/09/25 05:54:45;;;;;;;5.20;3.17;;;14.60;99.90;;;;;;4116682;28;20314;-79
2021/09/25 05:56:47;;;;;;;5.57;3.37;;;14.70;99.90;;;;;;4117204;28;20214;-78
2021/09/25 05:58:50;;;;;;;5.60;3.03;;;14.70;99.90;;;;;;4117964;28;20213;-78
2021/09/25 06:00:54;;;;;;;6.97;4.17;;;14.80;99.90;;;;;;4117507;28;20246;-78
2021/09/25 06:02:57;;;;;;;7.43;3.73;;;14.80;99.90;;;;;;4116680;28;20212;-78
2021/09/25 06:04:59;;;;;;;5.40;3.60;;;14.80;99.90;;;;;;4114933;28;20253;-78
2021/09/25 06:07:01;;;;;;;7.23;3.70;;;14.90;99.90;;;;;;4115096;28;20598;-79
2021/09/25 06:09:03;;;;;;;5.07;3.30;;;14.90;99.90;;;;;;4114969;28;20209;-78
2021/09/25 06:11:05;;;;;;;6.13;3.13;;;14.90;99.90;;;;;;4117905;28;20210;-79
2021/09/25 06:13:08;;;;;;;7.80;3.10;;;14.90;99.90;;;;;;4122688;28;20728;-78
2021/09/25 06:15:12;;;;;;;4.73;3.00;;;15.00;99.90;;;;;;4134177;28;20240;-78
2021/09/25 06:17:14;;;;;;;3.87;2.73;;;15.00;99.90;;;;;;4134243;28;20302;-79
2021/09/25 06:19:15;;;;;;;5.93;3.37;;;15.00;99.90;;;;;;4123711;28;20216;-76
2021/09/25 06:21:17;;;;;;;5.03;3.23;;;15.10;99.90;;;;;;4117791;28;20281;-78
2021/09/25 06:23:19;;;;;;;5.83;3.20;;;15.10;99.90;;;;;;4117851;28;20218;-78
2021/09/25 06:25:21;;;;;;;5.50;3.53;;;15.10;99.90;;;;;;4128684;28;20232;-78
2021/09/25 06:27:22;;;;;;;7.27;3.10;;;15.20;99.90;;;;;;4132995;28;20210;-78
2021/09/25 06:29:24;;;;;;;4.43;3.10;;;15.20;99.90;;;;;;4124577;28;20652;-78
2021/09/25 06:31:27;;;;;;;5.43;2.93;;;15.30;99.90;;;;;;4117681;28;20630;-79
2021/09/25 06:33:29;;;;;;;5.07;2.80;;;15.30;99.90;;;;;;4128818;28;20273;-78
2021/09/25 06:35:31;;;;;;;4.23;3.17;;;15.30;99.90;;;;;;4133913;28;20214;-78
2021/09/25 06:37:32;;;;;;;6.70;3.10;;;15.40;99.90;;;;;;4133973;28;20216;-78
2021/09/25 06:39:34;;;;;;;4.03;2.70;;;15.40;99.90;;;;;;4121675;28;20246;-78
2021/09/25 06:41:36;;;;;;;5.43;2.87;;;15.40;99.90;;;;;;4117594;28;20253;-78
2021/09/25 06:43:38;;;;;;;6.10;3.53;;;15.50;99.90;;;;;;4117472;28;20251;-78
2021/09/25 06:45:40;;;;;;;7.20;3.27;;;15.60;99.90;;;;;;4117509;28;20216;-78
2021/09/25 06:47:43;;;;;;;5.20;3.17;;;15.60;99.90;;;;;;4117603;28;20221;-78
2021/09/25 06:49:44;;;;;;;5.40;3.20;;;15.60;99.90;;;;;;4120066;28;20274;-78
2021/09/25 06:51:46;;;;;;;6.10;3.63;;;15.70;99.90;;;;;;4130165;28;20271;-78
2021/09/25 06:53:48;;;;;;;6.20;3.23;;;15.70;99.90;;;;;;4133410;28;20230;-78
2021/09/25 06:55:51;;;;;;;3.63;2.87;;;15.70;99.90;;;;;;4131434;28;20212;-78
2021/09/25 06:57:52;;;;;;;6.50;3.47;;;15.80;99.90;;;;;;4117290;28;20217;-78
2021/09/25 06:59:54;;;;;;;5.53;3.07;;;15.80;99.90;;;;;;4125285;28;20258;-76
2021/09/25 07:01:56;;;;;;;6.03;2.93;;;15.80;99.90;;;;;;4131155;28;20221;-76
2021/09/25 07:03:59;;;;;;;4.03;3.40;;;15.90;99.90;;;;;;4132341;28;20227;-76
2021/09/25 07:06:01;;;;;;;4.03;3.10;;;16.00;99.90;;;;;;4132907;28;20254;-76
2021/09/25 07:08:02;;;;;;;5.43;3.60;;;16.00;99.90;;;;;;4132946;28;20667;-76
2021/09/25 07:10:05;;;;;;;5.17;3.60;;;16.00;99.90;;;;;;4131095;28;20590;-76
2021/09/25 07:12:08;;;;;;;5.60;3.60;;;16.10;99.90;;;;;;4132892;28;20200;-76
2021/09/25 07:14:09;;;;;;;5.57;2.83;;;16.10;99.90;;;;;;4132788;28;20224;-76
2021/09/25 07:16:12;;;;;;;4.00;3.13;;;16.20;99.90;;;;;;4132774;28;20259;-76
2021/09/25 07:18:14;;;;;;;4.03;2.90;;;16.20;99.90;;;;;;4128726;28;20212;-76
2021/09/25 07:20:18;;;;;;;4.97;2.90;;;16.30;99.90;;;;;;4130724;28;21603;-76
2021/09/25 07:22:19;;;;;;;4.93;3.40;;;16.30;99.90;;;;;;4123985;28;20260;-76
2021/09/25 07:24:21;;;;;;;5.20;3.13;;;16.40;99.90;;;;;;4132528;28;20278;-76
2021/09/25 07:26:23;;;;;;;3.93;3.10;;;16.40;99.90;;;;;;4130720;28;20255;-76
2021/09/25 07:28:25;;;;;;;5.47;3.70;;;16.40;99.90;;;;;;4131255;28;20212;-76
2021/09/25 07:30:27;;;;;;;5.20;3.67;;;16.50;99.90;;;;;;4130828;28;20205;-76
2021/09/25 07:32:29;;;;;;;6.00;3.50;;;16.50;99.90;;;;;;4130774;28;20267;-76
2021/09/25 07:34:30;;;;;;;4.33;3.50;;;16.60;99.90;;;;;;4132378;28;20299;-78
2021/09/25 07:36:34;;;;;;;5.80;3.30;;;16.60;99.90;;;;;;4132725;28;20217;-76
2021/09/25 07:38:36;;;;;;;6.50;3.43;;;16.70;99.90;;;;;;4130098;28;20228;-76
2021/09/25 07:40:38;;;;;;;6.63;3.27;;;16.70;99.90;;;;;;4129056;28;20204;-76
2021/09/25 07:42:40;;;;;;;4.97;3.50;;;16.80;99.90;;;;;;4132386;28;20230;-76
2021/09/25 07:44:42;;;;;;;6.27;3.30;;;16.80;99.90;;;;;;4132320;28;20232;-76
2021/09/25 07:46:43;;;;;;;4.93;3.37;;;16.90;99.90;;;;;;4130656;28;20273;-76
2021/09/25 07:48:45;;;;;;;5.13;3.50;;;16.90;99.90;;;;;;4132621;28;20212;-76
2021/09/25 07:50:47;;;;;;;6.00;4.13;;;17.00;99.90;;;;;;4132671;28;20223;-75
2021/09/25 07:52:55;;;;;;;5.80;3.33;;;17.00;99.90;;;;;;4132887;28;20209;-76
2021/09/25 07:54:57;;;;;;;4.80;3.70;;;17.00;99.90;;;;;;4118224;28;20624;-76
2021/09/25 07:56:59;;;;;;;5.33;3.63;;;17.00;99.90;;;;;;4116703;28;20217;-77
2021/09/25 07:59:00;;;;;;;7.20;3.83;;;17.10;99.90;;;;;;4116545;28;20222;-76
2021/09/25 08:01:04;;;;;;;5.57;3.83;;;17.10;99.90;;;;;;4119620;28;20212;-78
2021/09/25 08:03:05;;;;;;;5.50;3.70;;;17.10;99.90;;;;;;4116412;28;20267;-78
2021/09/25 08:05:09;;;;;;;5.57;3.93;;;17.10;99.90;;;;;;4129963;28;20293;-77
2021/09/25 08:07:10;;;;;;;5.07;3.53;;;17.20;99.90;;;;;;4132188;28;20291;-77
2021/09/25 08:09:13;;;;;;;4.20;3.40;;;17.20;99.90;;;;;;4132152;28;20676;-76
2021/09/25 08:11:15;;;;;;;4.83;3.53;;;17.30;99.90;;;;;;4128023;28;20210;-77
2021/09/25 08:13:17;;;;;;;5.33;3.80;;;17.30;99.90;;;;;;4132247;28;20193;-76
2021/09/25 08:15:19;;;;;;;4.40;3.40;;;17.40;99.90;;;;;;4132169;28;20225;-79
2021/09/25 08:17:20;;;;;;;5.70;3.20;;;17.50;99.90;;;;;;4132379;28;20633;-76
2021/09/25 08:19:22;;;;;;;5.43;3.87;;;17.50;99.90;;;;;;4127908;28;20209;-77
2021/09/25 08:21:24;;;;;;;5.53;3.23;;;17.60;99.90;;;;;;4129694;28;20216;-77
2021/09/25 08:23:26;;;;;;;5.73;3.57;;;17.70;99.90;;;;;;4128091;28;20214;-77
2021/09/25 08:25:29;;;;;;;4.77;3.80;;;17.70;99.90;;;;;;4129634;28;20222;-77
2021/09/25 08:27:31;;;;;;;6.70;4.07;;;17.80;99.90;;;;;;4131218;28;20261;-76
2021/09/25 08:29:34;;;;;;;5.17;3.47;;;17.90;99.90;;;;;;4125358;28;20218;-76
2021/09/25 08:31:38;;;;;;;6.27;3.50;;;17.90;99.90;;;;;;4130967;28;20559;-76
2021/09/25 08:33:40;;;;;;;5.47;3.53;;;18.00;99.90;;;;;;4130679;28;20211;-76
2021/09/25 08:35:42;;;;;;;6.07;3.70;;;18.10;99.90;;;;;;4131075;28;20242;-77
2021/09/25 08:37:44;;;;;;;8.37;3.80;;;18.10;99.90;;;;;;4123826;28;20213;-76
2021/09/25 08:39:46;;;;;;;8.10;3.90;;;18.10;99.90;;;;;;4128382;28;20268;-76
2021/09/25 08:41:51;;;;;;;4.70;3.60;;;18.20;99.90;;;;;;4127888;28;20229;-76
2021/09/25 08:43:52;;;;;;;5.77;3.90;;;18.20;99.90;;;;;;4127875;28;20737;-76
2021/09/25 08:45:58;;;;;;;6.20;4.43;;;18.20;99.90;;;;;;4125920;28;20216;-76
2021/09/25 08:48:00;;;;;;;5.80;3.90;;;18.30;99.90;;;;;;4121631;28;20207;-77
2021/09/25 08:50:02;;;;;;;5.23;3.77;;;18.40;99.90;;;;;;4119951;28;20214;-77
2021/09/25 08:52:04;;;;;;;8.30;3.87;;;18.40;99.90;;;;;;4130893;28;20205;-77
2021/09/25 08:54:06;;;;;;;6.20;3.77;;;18.50;99.90;;;;;;4129448;28;20221;-76
2021/09/25 08:56:09;;;;;;;6.60;4.17;;;18.50;99.90;;;;;;4131635;28;20257;-76
2021/09/25 08:58:12;;;;;;;4.93;3.37;;;18.60;99.90;;;;;;4131312;28;20293;-76
2021/09/25 09:00:32;;;;;;;5.70;3.63;;;18.60;99.90;;;;;;4128553;28;20208;-76
2021/09/25 09:02:34;;;;;;;5.33;3.27;;;18.60;99.90;;;;;;4128029;28;20224;-76
2021/09/25 09:04:41;;;;;;;5.13;3.80;;;18.60;99.90;;;;;;4130856;28;20227;-76
2021/09/25 09:06:49;;;;;;;5.73;3.53;;;18.60;99.90;;;;;;4131242;28;20590;-77
2021/09/25 09:08:52;;;;;;;5.13;3.40;;;18.60;99.90;;;;;;4131222;28;20594;-76
2021/09/25 09:10:55;;;;;;;6.43;3.70;;;18.70;99.90;;;;;;4127104;28;20203;-77
2021/09/25 09:12:58;;;;;;;5.90;3.90;;;18.60;99.90;;;;;;4132181;28;20549;-79
2021/09/25 09:15:01;;;;;;;4.17;3.30;;;18.60;99.90;;;;;;4133418;28;20230;-79
2021/09/25 09:17:03;;;;;;;5.53;3.10;;;18.60;99.90;;;;;;4131121;28;20206;-78
2021/09/25 09:19:04;;;;;;;4.60;3.20;;;18.60;99.90;;;;;;4128836;28;20213;-78
2021/09/25 09:21:09;;;;;;;7.27;3.77;;;18.70;99.90;;;;;;4131062;28;20212;-77
2021/09/25 09:23:15;;;;;;;6.63;3.70;;;18.70;99.90;;;;;;4131179;28;20223;-79
2021/09/25 09:25:19;;;;;;;5.60;3.90;;;18.80;99.90;;;;;;4130293;28;20293;-76
2021/09/25 09:27:27;;;;;;;6.43;3.83;;;18.90;99.90;;;;;;4130971;28;20583;-77
2021/09/25 09:29:33;;;;;;;7.47;4.70;;;19.00;99.90;;;;;;4128254;28;20211;-76
2021/09/25 09:31:37;;;;;;;5.23;3.87;;;19.10;99.90;;;;;;4128475;28;20295;-76
2021/09/25 09:33:41;;;;;;;5.77;3.80;;;19.20;99.90;;;;;;4130771;28;20207;-77
2021/09/25 09:35:43;;;;;;;12.57;4.90;;;19.30;99.90;;;;;;4130534;28;20268;-77
2021/09/25 09:37:46;;;;;;;5.53;4.23;;;19.30;99.90;;;;;;4128694;28;20212;-76
2021/09/25 09:40:00;;;;;;;5.53;4.10;;;19.40;99.90;;;;;;4130524;28;20234;-76
2021/09/25 09:42:02;;;;;;;4.60;3.57;;;19.50;99.90;;;;;;4129895;28;20290;-77
2021/09/25 09:44:05;;;;;;;7.27;3.77;;;19.60;99.90;;;;;;4130130;28;20263;-78
2021/09/25 09:46:07;;;;;;;5.00;3.23;;;19.70;99.90;;;;;;4128521;28;20212;-76
2021/09/25 09:48:10;;;;;;;4.60;3.53;;;19.80;99.90;;;;;;4130891;28;20726;-77
2021/09/25 09:50:14;;;;;;;5.67;3.87;;;19.80;99.90;;;;;;4128753;28;20264;-78
2021/09/25 09:52:16;;;;;;;4.87;3.60;;;19.90;99.90;;;;;;4131108;28;20247;-78
2021/09/25 09:54:21;;;;;;;4.07;3.27;;;20.00;99.90;;;;;;4130746;28;20228;-77
2021/09/25 09:56:25;;;;;;;5.17;3.40;;;20.10;99.90;;;;;;4128842;28;20263;-77
2021/09/25 09:58:31;;;;;;;4.27;3.40;;;20.20;99.90;;;;;;4131706;28;20208;-78
2021/09/25 10:00:33;;;;;;;6.97;3.57;;;20.30;99.90;;;;;;4128956;28;20761;-78
2021/09/25 10:02:37;;;;;;;6.73;4.00;;;20.30;99.90;;;;;;4131749;28;20228;-77
2021/09/25 10:04:41;;;;;;;4.73;3.60;;;20.40;99.90;;;;;;4130164;28;20712;-73
2021/09/25 10:06:43;;;;;;;6.63;4.00;;;20.50;99.90;;;;;;4130959;28;20264;-76
2021/09/25 10:08:45;;;;;;;6.20;4.00;;;20.50;99.90;;;;;;4130574;28;20204;-73
2021/09/25 10:10:47;;;;;;;6.13;3.80;;;20.50;99.90;;;;;;4129435;28;20212;-77
2021/09/25 10:12:49;;;;;;;4.83;4.20;;;20.70;99.90;;;;;;4130148;28;20209;-76
2021/09/25 10:14:51;;;;;;;6.00;3.97;;;20.70;99.90;;;;;;4130813;28;20278;-78
2021/09/25 10:16:55;;;;;;;5.33;3.27;;;20.80;99.90;;;;;;4130993;28;20263;-78
2021/09/25 10:18:57;;;;;;;4.87;3.67;;;20.90;99.90;;;;;;4130592;28;20209;-79
2021/09/25 10:21:03;;;;;;;4.30;3.37;;;21.00;99.90;;;;;;4131172;28;20263;-78
2021/09/25 10:23:05;;;;;;;5.43;3.67;;;21.10;99.90;;;;;;4133367;28;20721;-79
2021/09/25 10:25:12;;;;;;;5.87;4.13;;;21.20;99.90;;;;;;4133190;28;20291;-78
2021/09/25 10:27:15;;;;;;;5.37;3.93;;;21.20;99.90;;;;;;4132427;28;20213;-78
2021/09/25 10:29:19;;;;;;;5.03;3.50;;;21.30;99.90;;;;;;4127100;28;20284;-78
2021/09/25 10:31:21;;;;;;;5.37;3.70;;;21.50;99.90;;;;;;4131369;28;20213;-78
2021/09/25 10:33:23;;;;;;;5.60;3.77;;;21.60;99.90;;;;;;4132171;28;20272;-78
2021/09/25 10:35:27;;;;;;;4.60;3.60;;;21.70;99.90;;;;;;4133446;28;20206;-79
2021/09/25 10:37:35;;;;;;;5.13;3.27;;;21.80;99.90;;;;;;4130643;28;20219;-80